createdAt,value
2023-05-08T00:01:40.178Z,69.07
2023-05-08T00:04:08.216Z,68.65
2023-05-08T00:06:36.148Z,69.26
2023-05-08T00:09:03.885Z,69.07
2023-05-08T00:11:31.549Z,69.59
2023-05-08T00:13:59.266Z,69.50
2023-05-08T00:16:28.552Z,69.31
2023-05-08T00:18:56.281Z,69.71
2023-05-08T00:21:24.714Z,69.68
2023-05-08T00:23:52.975Z,69.63
2023-05-08T00:26:20.773Z,70.44
2023-05-08T00:28:48.543Z,70.01
2023-05-08T00:31:16.626Z,70.74
2023-05-08T00:33:45.765Z,70.49
2023-05-08T00:36:15.724Z,70.30
2023-05-08T00:38:43.736Z,70.10
2023-05-08T00:41:11.642Z,69.96
2023-05-08T00:43:40.098Z,69.75
2023-05-08T00:46:09.849Z,69.87
2023-05-08T00:48:37.693Z,69.83
2023-05-08T00:51:09.084Z,69.69
2023-05-08T00:53:38.816Z,69.79
2023-05-08T00:56:07.026Z,70.18
2023-05-08T00:58:34.810Z,70.17
2023-05-08T01:01:03.764Z,69.64
2023-05-08T01:03:32.595Z,70.15
2023-05-08T01:06:00.899Z,69.86
2023-05-08T01:08:30.000Z,69.56
2023-05-08T01:11:03.084Z,69.31
2023-05-08T01:13:43.732Z,70.09
2023-05-08T01:16:16.556Z,69.51
2023-05-08T01:18:50.870Z,69.68
2023-05-08T01:21:27.136Z,69.96
2023-05-08T01:24:21.344Z,69.79
2023-05-08T01:27:10.070Z,69.86
2023-05-08T01:30:21.196Z,70.04
2023-05-08T01:32:54.963Z,69.61
2023-05-08T01:35:26.002Z,69.22
2023-05-08T01:37:59.645Z,69.23
2023-05-08T01:40:34.642Z,69.32
2023-05-08T01:43:12.540Z,69.52
2023-05-08T01:45:42.084Z,70.40
2023-05-08T01:48:16.182Z,70.06
2023-05-08T01:50:47.138Z,70.00
2023-05-08T01:53:21.379Z,70.54
2023-05-08T01:55:51.575Z,69.64
2023-05-08T01:58:19.778Z,69.46
2023-05-08T02:00:48.241Z,69.65
2023-05-08T02:03:18.136Z,69.84
2023-05-08T02:05:46.483Z,69.90
2023-05-08T02:08:15.901Z,69.72
2023-05-08T02:10:44.200Z,69.71
2023-05-08T02:13:12.793Z,69.76
2023-05-08T02:15:40.941Z,70.12
2023-05-08T02:18:09.780Z,69.14
2023-05-08T02:20:40.099Z,69.80
2023-05-08T02:23:08.588Z,69.92
2023-05-08T02:25:36.961Z,70.16
2023-05-08T02:28:04.807Z,69.72
2023-05-08T02:30:32.694Z,69.91
2023-05-08T02:33:01.334Z,69.97
2023-05-08T02:35:30.929Z,70.25
2023-05-08T02:38:00.748Z,70.21
2023-05-08T02:40:30.436Z,70.15
2023-05-08T02:42:58.153Z,70.24
2023-05-08T02:45:27.871Z,70.31
2023-05-08T02:48:01.776Z,70.43
2023-05-08T02:50:35.996Z,70.06
2023-05-08T02:53:08.765Z,70.18
2023-05-08T02:55:41.380Z,70.35
2023-05-08T02:58:15.164Z,70.21
2023-05-08T03:00:48.084Z,69.75
2023-05-08T03:03:21.015Z,70.20
2023-05-08T03:05:52.719Z,70.19
2023-05-08T03:08:26.780Z,70.28
2023-05-08T03:10:58.402Z,70.00
2023-05-08T03:13:27.134Z,70.88
2023-05-08T03:15:56.582Z,70.74
2023-05-08T03:18:27.858Z,70.25
2023-05-08T03:20:56.400Z,70.31
2023-05-08T03:23:27.717Z,70.37
2023-05-08T03:25:56.557Z,70.53
2023-05-08T03:28:24.810Z,70.31
2023-05-08T03:30:53.244Z,70.11
2023-05-08T03:33:22.058Z,70.32
2023-05-08T03:35:50.660Z,70.34
2023-05-08T03:38:18.396Z,70.33
2023-05-08T03:40:49.864Z,70.68
2023-05-08T03:43:19.132Z,70.94
2023-05-08T03:45:47.135Z,70.61
2023-05-08T03:48:15.282Z,70.35
2023-05-08T03:50:43.108Z,70.37
2023-05-08T03:53:10.781Z,70.17
2023-05-08T03:55:39.341Z,70.04
2023-05-08T03:58:14.750Z,70.02
2023-05-08T04:00:55.455Z,69.78
2023-05-08T04:03:26.583Z,69.62
2023-05-08T04:06:01.000Z,70.09
2023-05-08T04:08:30.139Z,70.22
2023-05-08T04:11:05.617Z,69.46
2023-05-08T04:13:38.329Z,70.29
2023-05-08T04:16:10.327Z,70.41
2023-05-08T04:18:39.321Z,69.73
2023-05-08T04:21:10.629Z,69.76
2023-05-08T04:23:40.452Z,69.82
2023-05-08T04:26:08.991Z,69.84
2023-05-08T04:28:38.241Z,69.83
2023-05-08T04:31:06.554Z,69.49
2023-05-08T04:33:35.138Z,69.67
2023-05-08T04:36:03.676Z,69.83
2023-05-08T04:38:31.475Z,69.62
2023-05-08T04:40:59.223Z,69.52
2023-05-08T04:43:27.004Z,69.39
2023-05-08T04:45:56.090Z,68.71
2023-05-08T04:48:24.884Z,68.81
2023-05-08T04:50:52.546Z,69.11
2023-05-08T04:53:20.236Z,69.32
2023-05-08T04:55:47.890Z,69.22
2023-05-08T04:58:15.562Z,68.72
2023-05-08T05:00:43.281Z,69.10
2023-05-08T05:03:12.402Z,69.06
2023-05-08T05:05:40.173Z,69.30
2023-05-08T05:08:07.883Z,69.27
2023-05-08T05:10:35.563Z,69.47
2023-05-08T05:13:03.301Z,69.17
2023-05-08T05:15:31.019Z,69.38
2023-05-08T05:17:58.749Z,69.03
2023-05-08T05:20:28.633Z,69.34
2023-05-08T05:22:56.359Z,69.56
2023-05-08T05:25:24.068Z,69.66
2023-05-08T05:27:51.809Z,70.00
2023-05-08T05:30:19.727Z,69.61
2023-05-08T05:32:47.732Z,69.77
2023-05-08T05:35:15.713Z,69.30
2023-05-08T05:37:44.922Z,69.52
2023-05-08T05:40:13.474Z,69.50
2023-05-08T05:42:41.245Z,69.74
2023-05-08T05:45:09.958Z,70.16
2023-05-08T05:47:38.095Z,70.39
2023-05-08T05:50:06.515Z,70.28
2023-05-08T05:52:34.265Z,69.15
2023-05-08T05:55:03.345Z,69.87
2023-05-08T05:57:31.028Z,69.53
2023-05-08T05:59:59.711Z,69.90
2023-05-08T06:02:27.625Z,69.61
2023-05-08T06:04:55.367Z,70.51
2023-05-08T06:07:23.069Z,70.62
2023-05-08T06:09:51.244Z,70.28
2023-05-08T06:12:20.493Z,70.30
2023-05-08T06:14:48.219Z,70.31
2023-05-08T06:17:15.976Z,70.59
2023-05-08T06:19:43.768Z,69.40
2023-05-08T06:22:11.442Z,70.34
2023-05-08T06:24:41.907Z,69.26
2023-05-08T06:27:09.570Z,70.70
2023-05-08T06:29:38.813Z,69.48
2023-05-08T06:32:07.622Z,70.49
2023-05-08T06:34:35.489Z,70.11
2023-05-08T06:37:03.263Z,70.15
2023-05-08T06:39:30.917Z,69.91
2023-05-08T06:41:58.635Z,68.71
2023-05-08T06:44:26.360Z,69.44
2023-05-08T06:46:55.819Z,69.91
2023-05-08T06:49:24.047Z,70.44
2023-05-08T06:51:51.782Z,70.34
2023-05-08T06:54:19.485Z,70.29
2023-05-08T06:56:47.183Z,70.81
2023-05-08T06:59:14.995Z,71.44
2023-05-08T07:01:42.919Z,72.05
2023-05-08T07:04:12.509Z,71.56
2023-05-08T07:06:40.208Z,71.55
2023-05-08T07:09:08.065Z,71.48
2023-05-08T07:11:35.818Z,71.37
2023-05-08T07:14:03.585Z,71.48
2023-05-08T07:16:31.289Z,71.45
2023-05-08T07:18:59.153Z,71.32
2023-05-08T07:21:29.409Z,71.14
2023-05-08T07:23:57.236Z,70.97
2023-05-08T07:26:24.858Z,71.61
2023-05-08T07:28:54.221Z,70.74
2023-05-08T07:31:22.189Z,71.01
2023-05-08T07:33:50.030Z,71.45
2023-05-08T07:36:17.749Z,72.14
2023-05-08T07:38:46.857Z,72.18
2023-05-08T07:41:14.739Z,72.86
2023-05-08T07:46:18.867Z,72.93
2023-05-08T07:48:46.634Z,73.07
2023-05-08T07:51:14.632Z,73.14
2023-05-08T07:53:42.509Z,73.23
2023-05-08T07:56:10.219Z,73.29
2023-05-08T07:58:37.922Z,72.85
2023-05-08T08:01:05.821Z,73.66
2023-05-08T08:03:34.923Z,72.47
2023-05-08T08:06:02.712Z,72.84
2023-05-08T08:08:30.389Z,72.14
2023-05-08T08:10:58.138Z,72.42
2023-05-08T08:13:26.066Z,73.15
2023-05-08T08:15:53.982Z,74.63
2023-05-08T08:18:21.745Z,74.01
2023-05-08T08:20:50.928Z,73.87
2023-05-08T08:23:18.663Z,73.04
2023-05-08T08:27:58.398Z,73.97
2023-05-08T08:30:26.186Z,74.09
2023-05-08T08:32:53.954Z,74.85
2023-05-08T08:35:22.946Z,74.61
2023-05-08T08:37:50.690Z,75.37
2023-05-08T08:40:18.328Z,75.58
2023-05-08T08:42:47.165Z,75.93
2023-05-08T08:45:16.722Z,75.96
2023-05-08T08:47:46.535Z,76.41
2023-05-08T08:50:15.647Z,77.49
2023-05-08T08:52:48.888Z,77.07
2023-05-08T08:55:17.789Z,76.85
2023-05-08T08:57:54.788Z,75.21
2023-05-08T09:00:24.681Z,76.26
2023-05-08T09:02:52.681Z,76.60
2023-05-08T09:05:23.537Z,76.77
2023-05-08T09:07:51.857Z,77.42
2023-05-08T09:10:19.783Z,77.38
2023-05-08T09:12:49.007Z,77.33
2023-05-08T09:15:17.005Z,77.66
2023-05-08T09:17:46.214Z,77.95
2023-05-08T09:20:15.621Z,78.39
2023-05-08T09:22:44.411Z,76.61
2023-05-08T09:25:12.416Z,77.73
2023-05-08T09:27:40.388Z,77.55
2023-05-08T09:30:10.117Z,77.94
2023-05-08T09:32:39.921Z,78.60
2023-05-08T09:35:10.457Z,78.98
2023-05-08T09:37:39.927Z,79.05
2023-05-08T09:40:15.389Z,78.33
2023-05-08T09:42:43.185Z,78.35
2023-05-08T09:45:12.711Z,79.25
2023-05-08T09:47:49.375Z,78.01
2023-05-08T09:50:18.693Z,77.82
2023-05-08T09:52:48.413Z,77.24
2023-05-08T09:55:16.262Z,79.49
2023-05-08T09:57:54.263Z,78.13
2023-05-08T10:00:22.802Z,78.36
2023-05-08T10:02:59.078Z,79.45
2023-05-08T10:05:30.051Z,78.79
